sensor_id;sensor_type;location;lat;lon;timestamp;temperature;humidity
22069;DHT22;13887;57.196;-2.100;2023-09-07T00:01:47;16.80;84.52
22069;DHT22;13887;57.196;-2.100;2023-09-07T00:04:16;16.80;84.55
22069;DHT22;13887;57.196;-2.100;2023-09-07T00:06:44;16.79;84.41
22069;DHT22;13887;57.196;-2.100;2023-09-07T00:09:11;16.78;84.32
22069;DHT22;13887;57.196;-2.100;2023-09-07T00:11:40;16.79;84.29
22069;DHT22;13887;57.196;-2.100;2023-09-07T00:14:07;16.77;84.33
22069;DHT22;13887;57.196;-2.100;2023-09-07T00:16:35;16.79;84.48
22069;DHT22;13887;57.196;-2.100;2023-09-07T00:19:02;16.77;84.26
22069;DHT22;13887;57.196;-2.100;2023-09-07T00:21:30;16.77;84.35
22069;DHT22;13887;57.196;-2.100;2023-09-07T00:23:58;16.77;84.45
22069;DHT22;13887;57.196;-2.100;2023-09-07T00:26:25;16.77;84.39
22069;DHT22;13887;57.196;-2.100;2023-09-07T00:28:52;16.76;84.48
22069;DHT22;13887;57.196;-2.100;2023-09-07T00:31:20;16.76;84.44
22069;DHT22;13887;57.196;-2.100;2023-09-07T00:33:47;16.75;84.62
22069;DHT22;13887;57.196;-2.100;2023-09-07T00:36:14;16.74;84.29
22069;DHT22;13887;57.196;-2.100;2023-09-07T00:38:41;16.74;84.64
22069;DHT22;13887;57.196;-2.100;2023-09-07T00:41:08;16.72;84.83
22069;DHT22;13887;57.196;-2.100;2023-09-07T00:43:36;16.73;84.98
22069;DHT22;13887;57.196;-2.100;2023-09-07T00:46:05;16.72;84.98
22069;DHT22;13887;57.196;-2.100;2023-09-07T00:48:32;16.72;84.86
22069;DHT22;13887;57.196;-2.100;2023-09-07T00:51:00;16.72;84.92
22069;DHT22;13887;57.196;-2.100;2023-09-07T00:53:28;16.71;84.84
22069;DHT22;13887;57.196;-2.100;2023-09-07T00:55:55;16.70;84.68
22069;DHT22;13887;57.196;-2.100;2023-09-07T00:58:23;16.67;84.81
22069;DHT22;13887;57.196;-2.100;2023-09-07T01:00:50;16.67;84.63
22069;DHT22;13887;57.196;-2.100;2023-09-07T01:03:18;16.66;84.86
22069;DHT22;13887;57.196;-2.100;2023-09-07T01:06:07;16.67;84.87
22069;DHT22;13887;57.196;-2.100;2023-09-07T01:08:40;16.66;84.88
22069;DHT22;13887;57.196;-2.100;2023-09-07T01:11:16;16.67;84.87
22069;DHT22;13887;57.196;-2.100;2023-09-07T01:13:44;16.65;84.67
22069;DHT22;13887;57.196;-2.100;2023-09-07T01:16:12;16.64;84.64
22069;DHT22;13887;57.196;-2.100;2023-09-07T01:18:41;16.63;84.49
22069;DHT22;13887;57.196;-2.100;2023-09-07T01:21:11;16.64;84.55
22069;DHT22;13887;57.196;-2.100;2023-09-07T01:23:41;16.64;84.85
22069;DHT22;13887;57.196;-2.100;2023-09-07T01:26:09;16.64;85.00
22069;DHT22;13887;57.196;-2.100;2023-09-07T01:28:37;16.62;84.90
22069;DHT22;13887;57.196;-2.100;2023-09-07T01:31:05;16.61;84.64
22069;DHT22;13887;57.196;-2.100;2023-09-07T01:33:34;16.60;84.45
22069;DHT22;13887;57.196;-2.100;2023-09-07T01:36:01;16.59;84.64
22069;DHT22;13887;57.196;-2.100;2023-09-07T01:38:29;16.59;84.48
22069;DHT22;13887;57.196;-2.100;2023-09-07T01:40:56;16.60;84.64
22069;DHT22;13887;57.196;-2.100;2023-09-07T01:43:24;16.59;84.71
22069;DHT22;13887;57.196;-2.100;2023-09-07T01:45:51;16.59;84.53
22069;DHT22;13887;57.196;-2.100;2023-09-07T01:48:18;16.56;84.36
22069;DHT22;13887;57.196;-2.100;2023-09-07T01:50:46;16.55;84.34
22069;DHT22;13887;57.196;-2.100;2023-09-07T01:53:13;16.56;84.48
22069;DHT22;13887;57.196;-2.100;2023-09-07T01:55:41;16.56;84.31
22069;DHT22;13887;57.196;-2.100;2023-09-07T01:58:10;16.56;84.35
22069;DHT22;13887;57.196;-2.100;2023-09-07T02:00:38;16.54;84.48
22069;DHT22;13887;57.196;-2.100;2023-09-07T02:03:06;16.52;84.35
22069;DHT22;13887;57.196;-2.100;2023-09-07T02:05:34;16.51;84.39
22069;DHT22;13887;57.196;-2.100;2023-09-07T02:08:01;16.52;84.45
22069;DHT22;13887;57.196;-2.100;2023-09-07T02:10:29;16.51;84.45
22069;DHT22;13887;57.196;-2.100;2023-09-07T02:12:58;16.52;84.36
22069;DHT22;13887;57.196;-2.100;2023-09-07T02:15:26;16.51;84.29
22069;DHT22;13887;57.196;-2.100;2023-09-07T02:17:54;16.48;84.61
22069;DHT22;13887;57.196;-2.100;2023-09-07T02:20:21;16.47;84.81
22069;DHT22;13887;57.196;-2.100;2023-09-07T02:22:49;16.47;84.79
22069;DHT22;13887;57.196;-2.100;2023-09-07T02:25:17;16.46;84.81
22069;DHT22;13887;57.196;-2.100;2023-09-07T02:27:44;16.48;84.64
22069;DHT22;13887;57.196;-2.100;2023-09-07T02:30:12;16.45;84.48
22069;DHT22;13887;57.196;-2.100;2023-09-07T02:32:42;16.46;84.47
22069;DHT22;13887;57.196;-2.100;2023-09-07T02:35:11;16.45;84.41
22069;DHT22;13887;57.196;-2.100;2023-09-07T02:37:39;16.45;84.37
22069;DHT22;13887;57.196;-2.100;2023-09-07T02:40:07;16.45;84.49
22069;DHT22;13887;57.196;-2.100;2023-09-07T02:42:36;16.46;84.49
22069;DHT22;13887;57.196;-2.100;2023-09-07T02:45:03;16.43;84.25
22069;DHT22;13887;57.196;-2.100;2023-09-07T02:47:32;16.45;84.37
22069;DHT22;13887;57.196;-2.100;2023-09-07T02:49:59;16.43;84.25
22069;DHT22;13887;57.196;-2.100;2023-09-07T02:52:27;16.43;84.29
22069;DHT22;13887;57.196;-2.100;2023-09-07T02:54:55;16.42;84.52
22069;DHT22;13887;57.196;-2.100;2023-09-07T02:57:22;16.43;84.51
22069;DHT22;13887;57.196;-2.100;2023-09-07T02:59:50;16.42;84.23
22069;DHT22;13887;57.196;-2.100;2023-09-07T03:02:19;16.41;84.33
22069;DHT22;13887;57.196;-2.100;2023-09-07T03:04:46;16.42;84.43
22069;DHT22;13887;57.196;-2.100;2023-09-07T03:07:13;16.40;84.31
22069;DHT22;13887;57.196;-2.100;2023-09-07T03:09:41;16.43;84.44
22069;DHT22;13887;57.196;-2.100;2023-09-07T03:12:09;16.40;84.35
22069;DHT22;13887;57.196;-2.100;2023-09-07T03:14:36;16.37;84.27
22069;DHT22;13887;57.196;-2.100;2023-09-07T03:17:03;16.40;84.26
22069;DHT22;13887;57.196;-2.100;2023-09-07T03:19:31;16.37;84.27
22069;DHT22;13887;57.196;-2.100;2023-09-07T03:21:58;16.37;84.25
22069;DHT22;13887;57.196;-2.100;2023-09-07T03:24:26;16.37;84.27
22069;DHT22;13887;57.196;-2.100;2023-09-07T03:26:56;16.35;84.24
22069;DHT22;13887;57.196;-2.100;2023-09-07T03:29:23;16.35;84.23
22069;DHT22;13887;57.196;-2.100;2023-09-07T03:31:51;16.35;84.19
22069;DHT22;13887;57.196;-2.100;2023-09-07T03:34:18;16.35;84.18
22069;DHT22;13887;57.196;-2.100;2023-09-07T03:36:46;16.34;84.08
22069;DHT22;13887;57.196;-2.100;2023-09-07T03:39:14;16.34;84.14
22069;DHT22;13887;57.196;-2.100;2023-09-07T03:41:42;16.35;84.05
22069;DHT22;13887;57.196;-2.100;2023-09-07T03:44:10;16.39;84.20
22069;DHT22;13887;57.196;-2.100;2023-09-07T03:46:37;16.36;84.08
22069;DHT22;13887;57.196;-2.100;2023-09-07T03:49:05;16.33;84.32
22069;DHT22;13887;57.196;-2.100;2023-09-07T03:51:33;16.32;84.28
22069;DHT22;13887;57.196;-2.100;2023-09-07T03:54:00;16.33;84.42
22069;DHT22;13887;57.196;-2.100;2023-09-07T03:56:27;16.31;84.54
22069;DHT22;13887;57.196;-2.100;2023-09-07T03:58:54;16.31;84.73
22069;DHT22;13887;57.196;-2.100;2023-09-07T04:01:22;16.31;84.55
22069;DHT22;13887;57.196;-2.100;2023-09-07T04:03:49;16.30;84.55
22069;DHT22;13887;57.196;-2.100;2023-09-07T04:06:17;16.30;84.77
22069;DHT22;13887;57.196;-2.100;2023-09-07T04:08:45;16.28;84.90
22069;DHT22;13887;57.196;-2.100;2023-09-07T04:11:12;16.26;84.92
22069;DHT22;13887;57.196;-2.100;2023-09-07T04:13:40;16.26;84.95
22069;DHT22;13887;57.196;-2.100;2023-09-07T04:16:08;16.26;84.79
22069;DHT22;13887;57.196;-2.100;2023-09-07T04:18:36;16.26;84.62
22069;DHT22;13887;57.196;-2.100;2023-09-07T04:21:07;16.27;84.62
22069;DHT22;13887;57.196;-2.100;2023-09-07T04:23:35;16.27;84.55
22069;DHT22;13887;57.196;-2.100;2023-09-07T04:26:09;16.25;84.59
22069;DHT22;13887;57.196;-2.100;2023-09-07T04:28:38;16.26;84.78
22069;DHT22;13887;57.196;-2.100;2023-09-07T04:31:06;16.24;84.77
22069;DHT22;13887;57.196;-2.100;2023-09-07T04:33:34;16.24;84.82
22069;DHT22;13887;57.196;-2.100;2023-09-07T04:36:12;16.22;84.81
22069;DHT22;13887;57.196;-2.100;2023-09-07T04:38:41;16.22;84.97
22069;DHT22;13887;57.196;-2.100;2023-09-07T04:41:13;16.21;84.90
22069;DHT22;13887;57.196;-2.100;2023-09-07T04:43:41;16.20;84.85
22069;DHT22;13887;57.196;-2.100;2023-09-07T04:46:13;16.20;84.97
22069;DHT22;13887;57.196;-2.100;2023-09-07T04:48:41;16.20;84.94
22069;DHT22;13887;57.196;-2.100;2023-09-07T04:51:09;16.20;84.80
22069;DHT22;13887;57.196;-2.100;2023-09-07T04:53:37;16.19;84.67
22069;DHT22;13887;57.196;-2.100;2023-09-07T04:56:06;16.20;84.65
22069;DHT22;13887;57.196;-2.100;2023-09-07T04:58:36;16.20;84.80
22069;DHT22;13887;57.196;-2.100;2023-09-07T05:01:08;16.20;84.77
22069;DHT22;13887;57.196;-2.100;2023-09-07T05:03:37;16.18;84.70
22069;DHT22;13887;57.196;-2.100;2023-09-07T05:06:08;16.18;84.93
22069;DHT22;13887;57.196;-2.100;2023-09-07T05:08:35;16.16;84.94
22069;DHT22;13887;57.196;-2.100;2023-09-07T05:11:05;16.17;84.87
22069;DHT22;13887;57.196;-2.100;2023-09-07T05:13:32;16.16;84.77
22069;DHT22;13887;57.196;-2.100;2023-09-07T05:16:01;16.16;84.97
22069;DHT22;13887;57.196;-2.100;2023-09-07T05:18:29;16.15;85.06
22069;DHT22;13887;57.196;-2.100;2023-09-07T05:20:59;16.13;85.03
22069;DHT22;13887;57.196;-2.100;2023-09-07T05:23:26;16.12;85.00
22069;DHT22;13887;57.196;-2.100;2023-09-07T05:25:55;16.15;85.07
22069;DHT22;13887;57.196;-2.100;2023-09-07T05:28:25;16.12;84.85
22069;DHT22;13887;57.196;-2.100;2023-09-07T05:30:54;16.12;84.92
22069;DHT22;13887;57.196;-2.100;2023-09-07T05:33:24;16.12;84.82
22069;DHT22;13887;57.196;-2.100;2023-09-07T05:35:51;16.10;84.91
22069;DHT22;13887;57.196;-2.100;2023-09-07T05:38:20;16.10;84.93
22069;DHT22;13887;57.196;-2.100;2023-09-07T05:40:48;16.11;84.77
22069;DHT22;13887;57.196;-2.100;2023-09-07T05:43:17;16.10;84.64
22069;DHT22;13887;57.196;-2.100;2023-09-07T05:45:45;16.10;84.86
22069;DHT22;13887;57.196;-2.100;2023-09-07T05:48:12;16.10;84.77
22069;DHT22;13887;57.196;-2.100;2023-09-07T05:50:40;16.10;84.60
22069;DHT22;13887;57.196;-2.100;2023-09-07T05:53:07;16.10;84.76
22069;DHT22;13887;57.196;-2.100;2023-09-07T05:55:34;16.07;84.66
22069;DHT22;13887;57.196;-2.100;2023-09-07T05:58:08;16.10;84.68
22069;DHT22;13887;57.196;-2.100;2023-09-07T06:00:39;16.08;84.69
22069;DHT22;13887;57.196;-2.100;2023-09-07T06:03:08;16.07;84.59
22069;DHT22;13887;57.196;-2.100;2023-09-07T06:05:37;16.08;84.49
22069;DHT22;13887;57.196;-2.100;2023-09-07T06:08:07;16.08;84.71
22069;DHT22;13887;57.196;-2.100;2023-09-07T06:10:35;16.11;84.73
22069;DHT22;13887;57.196;-2.100;2023-09-07T06:13:04;16.10;84.55
22069;DHT22;13887;57.196;-2.100;2023-09-07T06:15:32;16.10;84.48
22069;DHT22;13887;57.196;-2.100;2023-09-07T06:18:01;16.10;84.67
22069;DHT22;13887;57.196;-2.100;2023-09-07T06:20:28;16.08;84.66
22069;DHT22;13887;57.196;-2.100;2023-09-07T06:22:58;16.07;84.51
22069;DHT22;13887;57.196;-2.100;2023-09-07T06:25:25;16.10;84.66
22069;DHT22;13887;57.196;-2.100;2023-09-07T06:27:54;16.11;84.32
22069;DHT22;13887;57.196;-2.100;2023-09-07T06:30:21;16.07;84.50
22069;DHT22;13887;57.196;-2.100;2023-09-07T06:32:48;16.07;84.59
22069;DHT22;13887;57.196;-2.100;2023-09-07T06:35:18;16.10;84.60
22069;DHT22;13887;57.196;-2.100;2023-09-07T06:37:46;16.08;84.71
22069;DHT22;13887;57.196;-2.100;2023-09-07T06:40:16;16.07;84.82
22069;DHT22;13887;57.196;-2.100;2023-09-07T06:42:49;16.11;85.00
22069;DHT22;13887;57.196;-2.100;2023-09-07T06:45:19;16.10;84.86
22069;DHT22;13887;57.196;-2.100;2023-09-07T06:47:49;16.13;84.78
22069;DHT22;13887;57.196;-2.100;2023-09-07T06:50:20;16.17;84.61
22069;DHT22;13887;57.196;-2.100;2023-09-07T06:52:48;16.17;84.43
22069;DHT22;13887;57.196;-2.100;2023-09-07T06:55:17;16.16;84.59
22069;DHT22;13887;57.196;-2.100;2023-09-07T06:57:45;16.14;84.39
22069;DHT22;13887;57.196;-2.100;2023-09-07T07:00:13;16.14;84.81
22069;DHT22;13887;57.196;-2.100;2023-09-07T07:02:41;16.15;84.70
22069;DHT22;13887;57.196;-2.100;2023-09-07T07:05:09;16.15;88.15
22069;DHT22;13887;57.196;-2.100;2023-09-07T07:07:36;16.03;89.44
22069;DHT22;13887;57.196;-2.100;2023-09-07T07:10:05;16.05;88.61
22069;DHT22;13887;57.196;-2.100;2023-09-07T07:12:32;16.06;87.83
22069;DHT22;13887;57.196;-2.100;2023-09-07T07:15:02;16.07;87.53
22069;DHT22;13887;57.196;-2.100;2023-09-07T07:17:31;16.08;87.25
22069;DHT22;13887;57.196;-2.100;2023-09-07T07:19:59;16.14;86.86
22069;DHT22;13887;57.196;-2.100;2023-09-07T07:22:26;16.12;86.26
22069;DHT22;13887;57.196;-2.100;2023-09-07T07:24:54;16.14;86.28
22069;DHT22;13887;57.196;-2.100;2023-09-07T07:27:21;16.16;86.26
22069;DHT22;13887;57.196;-2.100;2023-09-07T07:29:50;16.17;85.91
22069;DHT22;13887;57.196;-2.100;2023-09-07T07:32:18;16.19;85.71
22069;DHT22;13887;57.196;-2.100;2023-09-07T07:34:47;16.16;85.67
22069;DHT22;13887;57.196;-2.100;2023-09-07T07:37:15;16.16;85.70
22069;DHT22;13887;57.196;-2.100;2023-09-07T07:39:42;16.17;85.74
22069;DHT22;13887;57.196;-2.100;2023-09-07T07:42:11;16.19;85.69
22069;DHT22;13887;57.196;-2.100;2023-09-07T07:44:40;16.20;85.86
22069;DHT22;13887;57.196;-2.100;2023-09-07T07:47:08;16.20;85.94
22069;DHT22;13887;57.196;-2.100;2023-09-07T07:49:35;16.22;86.03
22069;DHT22;13887;57.196;-2.100;2023-09-07T07:52:04;16.24;86.02
22069;DHT22;13887;57.196;-2.100;2023-09-07T07:54:33;16.27;85.67
22069;DHT22;13887;57.196;-2.100;2023-09-07T07:57:01;16.26;86.51
22069;DHT22;13887;57.196;-2.100;2023-09-07T07:59:29;16.26;86.58
22069;DHT22;13887;57.196;-2.100;2023-09-07T08:01:56;16.32;86.09
22069;DHT22;13887;57.196;-2.100;2023-09-07T08:04:23;16.34;85.73
22069;DHT22;13887;57.196;-2.100;2023-09-07T08:06:51;16.31;85.66
22069;DHT22;13887;57.196;-2.100;2023-09-07T08:09:21;16.33;85.50
22069;DHT22;13887;57.196;-2.100;2023-09-07T08:11:49;16.34;85.16
22069;DHT22;13887;57.196;-2.100;2023-09-07T08:14:18;16.34;85.15
22069;DHT22;13887;57.196;-2.100;2023-09-07T08:16:46;16.35;85.13
22069;DHT22;13887;57.196;-2.100;2023-09-07T08:19:13;16.35;85.09
22069;DHT22;13887;57.196;-2.100;2023-09-07T08:21:41;16.37;85.27
22069;DHT22;13887;57.196;-2.100;2023-09-07T08:24:09;16.39;85.51
22069;DHT22;13887;57.196;-2.100;2023-09-07T08:26:36;16.39;86.25
22069;DHT22;13887;57.196;-2.100;2023-09-07T08:29:08;16.36;87.70
22069;DHT22;13887;57.196;-2.100;2023-09-07T08:31:35;16.41;87.67
22069;DHT22;13887;57.196;-2.100;2023-09-07T08:34:04;16.37;86.99
22069;DHT22;13887;57.196;-2.100;2023-09-07T08:36:32;16.37;87.26
22069;DHT22;13887;57.196;-2.100;2023-09-07T08:39:01;16.35;87.27
22069;DHT22;13887;57.196;-2.100;2023-09-07T08:41:37;16.37;87.41
22069;DHT22;13887;57.196;-2.100;2023-09-07T08:44:27;16.36;87.55
22069;DHT22;13887;57.196;-2.100;2023-09-07T08:46:55;16.37;87.37
22069;DHT22;13887;57.196;-2.100;2023-09-07T08:49:24;16.39;87.14
22069;DHT22;13887;57.196;-2.100;2023-09-07T08:51:52;16.41;86.89
22069;DHT22;13887;57.196;-2.100;2023-09-07T08:54:22;16.43;88.10
22069;DHT22;13887;57.196;-2.100;2023-09-07T08:56:50;16.41;88.08
22069;DHT22;13887;57.196;-2.100;2023-09-07T08:59:17;16.40;87.52
22069;DHT22;13887;57.196;-2.100;2023-09-07T09:01:44;16.43;87.37
22069;DHT22;13887;57.196;-2.100;2023-09-07T09:04:12;16.44;87.53
22069;DHT22;13887;57.196;-2.100;2023-09-07T09:06:40;16.45;87.46
22069;DHT22;13887;57.196;-2.100;2023-09-07T09:09:07;16.45;87.15
22069;DHT22;13887;57.196;-2.100;2023-09-07T09:11:34;16.46;86.92
22069;DHT22;13887;57.196;-2.100;2023-09-07T09:14:05;16.47;86.86
22069;DHT22;13887;57.196;-2.100;2023-09-07T09:16:32;16.49;86.77
22069;DHT22;13887;57.196;-2.100;2023-09-07T09:19:00;16.50;86.67
22069;DHT22;13887;57.196;-2.100;2023-09-07T09:21:27;16.52;86.58
22069;DHT22;13887;57.196;-2.100;2023-09-07T09:23:56;16.54;86.64
22069;DHT22;13887;57.196;-2.100;2023-09-07T09:26:24;16.57;86.70
22069;DHT22;13887;57.196;-2.100;2023-09-07T09:28:56;16.59;86.66
22069;DHT22;13887;57.196;-2.100;2023-09-07T09:31:24;16.60;86.51
22069;DHT22;13887;57.196;-2.100;2023-09-07T09:33:55;16.62;86.38
22069;DHT22;13887;57.196;-2.100;2023-09-07T09:36:22;16.63;86.16
22069;DHT22;13887;57.196;-2.100;2023-09-07T09:38:51;16.65;86.03
22069;DHT22;13887;57.196;-2.100;2023-09-07T09:41:21;16.67;85.93
22069;DHT22;13887;57.196;-2.100;2023-09-07T09:43:50;16.71;85.77
22069;DHT22;13887;57.196;-2.100;2023-09-07T09:46:18;16.71;85.66
22069;DHT22;13887;57.196;-2.100;2023-09-07T09:48:47;16.73;85.62
22069;DHT22;13887;57.196;-2.100;2023-09-07T09:51:15;16.73;85.54
22069;DHT22;13887;57.196;-2.100;2023-09-07T09:53:45;16.76;85.46
22069;DHT22;13887;57.196;-2.100;2023-09-07T09:56:12;16.77;85.38
22069;DHT22;13887;57.196;-2.100;2023-09-07T09:58:40;16.79;85.43
22069;DHT22;13887;57.196;-2.100;2023-09-07T10:01:07;16.81;85.41
22069;DHT22;13887;57.196;-2.100;2023-09-07T10:03:45;16.85;85.29
22069;DHT22;13887;57.196;-2.100;2023-09-07T10:06:28;16.86;85.59
22069;DHT22;13887;57.196;-2.100;2023-09-07T10:09:02;16.89;85.92
22069;DHT22;13887;57.196;-2.100;2023-09-07T10:11:33;16.90;85.80
22069;DHT22;13887;57.196;-2.100;2023-09-07T10:14:02;16.90;85.77
22069;DHT22;13887;57.196;-2.100;2023-09-07T10:16:46;16.92;86.33
22069;DHT22;13887;57.196;-2.100;2023-09-07T10:21:45;16.94;86.37
22069;DHT22;13887;57.196;-2.100;2023-09-07T10:24:28;16.98;86.32
22069;DHT22;13887;57.196;-2.100;2023-09-07T10:26:58;16.98;86.82
22069;DHT22;13887;57.196;-2.100;2023-09-07T10:29:26;17.01;86.89
22069;DHT22;13887;57.196;-2.100;2023-09-07T10:31:54;17.03;87.06
22069;DHT22;13887;57.196;-2.100;2023-09-07T10:34:22;17.05;87.08
22069;DHT22;13887;57.196;-2.100;2023-09-07T10:37:00;17.07;87.13
22069;DHT22;13887;57.196;-2.100;2023-09-07T10:39:31;17.10;87.80
22069;DHT22;13887;57.196;-2.100;2023-09-07T10:41:58;17.11;87.51
22069;DHT22;13887;57.196;-2.100;2023-09-07T10:44:26;17.13;87.66
22069;DHT22;13887;57.196;-2.100;2023-09-07T10:46:55;17.14;87.62
22069;DHT22;13887;57.196;-2.100;2023-09-07T10:49:24;17.16;88.09
22069;DHT22;13887;57.196;-2.100;2023-09-07T10:51:51;17.17;87.96
22069;DHT22;13887;57.196;-2.100;2023-09-07T10:54:23;17.17;87.77
22069;DHT22;13887;57.196;-2.100;2023-09-07T10:56:51;17.17;88.18
22069;DHT22;13887;57.196;-2.100;2023-09-07T10:59:18;17.16;88.13
22069;DHT22;13887;57.196;-2.100;2023-09-07T11:01:45;17.15;88.18
22069;DHT22;13887;57.196;-2.100;2023-09-07T11:04:13;17.15;88.15
22069;DHT22;13887;57.196;-2.100;2023-09-07T11:06:41;17.13;88.15
22069;DHT22;13887;57.196;-2.100;2023-09-07T11:09:09;17.15;88.02
22069;DHT22;13887;57.196;-2.100;2023-09-07T11:11:39;17.15;87.86
22069;DHT22;13887;57.196;-2.100;2023-09-07T11:14:08;17.16;88.02
22069;DHT22;13887;57.196;-2.100;2023-09-07T11:16:35;17.18;88.18
22069;DHT22;13887;57.196;-2.100;2023-09-07T11:19:06;17.20;88.30
22069;DHT22;13887;57.196;-2.100;2023-09-07T11:21:36;17.24;88.13
22069;DHT22;13887;57.196;-2.100;2023-09-07T11:24:04;17.24;88.34
22069;DHT22;13887;57.196;-2.100;2023-09-07T11:26:44;17.30;88.43
22069;DHT22;13887;57.196;-2.100;2023-09-07T11:29:16;17.33;88.47
22069;DHT22;13887;57.196;-2.100;2023-09-07T11:31:44;17.34;88.62
22069;DHT22;13887;57.196;-2.100;2023-09-07T11:34:13;17.36;88.58
22069;DHT22;13887;57.196;-2.100;2023-09-07T11:36:42;17.36;88.61
22069;DHT22;13887;57.196;-2.100;2023-09-07T11:39:09;17.39;88.58
22069;DHT22;13887;57.196;-2.100;2023-09-07T11:41:41;17.40;88.80
22069;DHT22;13887;57.196;-2.100;2023-09-07T11:44:11;17.39;88.73
22069;DHT22;13887;57.196;-2.100;2023-09-07T11:46:40;17.40;89.28
22069;DHT22;13887;57.196;-2.100;2023-09-07T11:49:07;17.41;89.16
22069;DHT22;13887;57.196;-2.100;2023-09-07T11:51:37;17.40;89.08
22069;DHT22;13887;57.196;-2.100;2023-09-07T11:54:04;17.44;89.48
22069;DHT22;13887;57.196;-2.100;2023-09-07T11:56:32;17.45;89.03
22069;DHT22;13887;57.196;-2.100;2023-09-07T11:58:59;17.48;89.13
22069;DHT22;13887;57.196;-2.100;2023-09-07T12:01:26;17.51;89.48
22069;DHT22;13887;57.196;-2.100;2023-09-07T12:03:54;17.49;89.47
22069;DHT22;13887;57.196;-2.100;2023-09-07T12:06:22;17.50;89.48
22069;DHT22;13887;57.196;-2.100;2023-09-07T12:09:04;17.51;89.81
22069;DHT22;13887;57.196;-2.100;2023-09-07T12:11:32;17.53;89.45
22069;DHT22;13887;57.196;-2.100;2023-09-07T12:14:00;17.55;89.59
22069;DHT22;13887;57.196;-2.100;2023-09-07T12:16:28;17.56;89.50
22069;DHT22;13887;57.196;-2.100;2023-09-07T12:18:55;17.63;89.90
22069;DHT22;13887;57.196;-2.100;2023-09-07T12:21:23;17.65;89.67
22069;DHT22;13887;57.196;-2.100;2023-09-07T12:23:50;17.69;89.87
22069;DHT22;13887;57.196;-2.100;2023-09-07T12:26:18;17.74;90.49
22069;DHT22;13887;57.196;-2.100;2023-09-07T12:28:48;17.75;90.47
22069;DHT22;13887;57.196;-2.100;2023-09-07T12:31:15;17.76;90.89
22069;DHT22;13887;57.196;-2.100;2023-09-07T12:33:42;17.79;90.98
22069;DHT22;13887;57.196;-2.100;2023-09-07T12:36:10;17.81;90.92
22069;DHT22;13887;57.196;-2.100;2023-09-07T12:38:38;17.85;91.85
22069;DHT22;13887;57.196;-2.100;2023-09-07T12:41:06;17.85;91.42
22069;DHT22;13887;57.196;-2.100;2023-09-07T12:43:33;17.90;92.13
22069;DHT22;13887;57.196;-2.100;2023-09-07T12:46:01;17.90;91.37
22069;DHT22;13887;57.196;-2.100;2023-09-07T12:48:29;17.91;91.43
22069;DHT22;13887;57.196;-2.100;2023-09-07T12:50:56;17.91;91.56
22069;DHT22;13887;57.196;-2.100;2023-09-07T12:53:23;17.92;91.79
22069;DHT22;13887;57.196;-2.100;2023-09-07T12:55:53;17.95;91.66
22069;DHT22;13887;57.196;-2.100;2023-09-07T12:58:21;17.98;92.16
22069;DHT22;13887;57.196;-2.100;2023-09-07T13:00:48;18.04;92.12
22069;DHT22;13887;57.196;-2.100;2023-09-07T13:03:19;18.06;92.06
22069;DHT22;13887;57.196;-2.100;2023-09-07T13:05:47;18.10;93.06
22069;DHT22;13887;57.196;-2.100;2023-09-07T13:08:15;18.14;93.32
22069;DHT22;13887;57.196;-2.100;2023-09-07T13:10:42;18.15;93.33
22069;DHT22;13887;57.196;-2.100;2023-09-07T13:13:09;18.15;93.44
22069;DHT22;13887;57.196;-2.100;2023-09-07T13:15:36;18.17;94.14
22069;DHT22;13887;57.196;-2.100;2023-09-07T13:18:04;18.20;93.46
22069;DHT22;13887;57.196;-2.100;2023-09-07T13:20:31;18.21;93.72
22069;DHT22;13887;57.196;-2.100;2023-09-07T13:22:59;18.23;93.74
22069;DHT22;13887;57.196;-2.100;2023-09-07T13:25:27;18.25;93.48
22069;DHT22;13887;57.196;-2.100;2023-09-07T13:27:55;18.20;92.93
22069;DHT22;13887;57.196;-2.100;2023-09-07T13:30:24;18.17;92.86
22069;DHT22;13887;57.196;-2.100;2023-09-07T13:32:52;18.12;92.66
22069;DHT22;13887;57.196;-2.100;2023-09-07T13:35:20;18.07;92.00
22069;DHT22;13887;57.196;-2.100;2023-09-07T13:37:47;18.06;91.87
22069;DHT22;13887;57.196;-2.100;2023-09-07T13:40:14;18.07;91.72
22069;DHT22;13887;57.196;-2.100;2023-09-07T13:42:42;18.08;91.59
22069;DHT22;13887;57.196;-2.100;2023-09-07T13:45:10;18.08;91.61
22069;DHT22;13887;57.196;-2.100;2023-09-07T13:47:38;18.08;91.24
22069;DHT22;13887;57.196;-2.100;2023-09-07T13:50:06;18.08;91.21
22069;DHT22;13887;57.196;-2.100;2023-09-07T13:52:33;18.07;91.32
22069;DHT22;13887;57.196;-2.100;2023-09-07T13:55:01;18.11;91.83
22069;DHT22;13887;57.196;-2.100;2023-09-07T13:57:28;18.13;90.71
22069;DHT22;13887;57.196;-2.100;2023-09-07T13:59:55;18.15;91.01
22069;DHT22;13887;57.196;-2.100;2023-09-07T14:02:22;18.17;90.38
22069;DHT22;13887;57.196;-2.100;2023-09-07T14:04:50;18.19;90.91
22069;DHT22;13887;57.196;-2.100;2023-09-07T14:07:17;18.20;91.10
22069;DHT22;13887;57.196;-2.100;2023-09-07T14:09:45;18.22;91.56
22069;DHT22;13887;57.196;-2.100;2023-09-07T14:12:12;18.21;91.66
22069;DHT22;13887;57.196;-2.100;2023-09-07T14:14:39;18.22;90.81
22069;DHT22;13887;57.196;-2.100;2023-09-07T14:17:06;18.24;90.57
22069;DHT22;13887;57.196;-2.100;2023-09-07T14:19:34;18.25;91.46
22069;DHT22;13887;57.196;-2.100;2023-09-07T14:22:01;18.25;91.79
22069;DHT22;13887;57.196;-2.100;2023-09-07T14:24:28;18.26;91.68
22069;DHT22;13887;57.196;-2.100;2023-09-07T14:26:55;18.27;91.11
22069;DHT22;13887;57.196;-2.100;2023-09-07T14:29:22;18.28;90.99
22069;DHT22;13887;57.196;-2.100;2023-09-07T14:31:49;18.32;91.26
22069;DHT22;13887;57.196;-2.100;2023-09-07T14:34:17;18.32;91.60
22069;DHT22;13887;57.196;-2.100;2023-09-07T14:36:44;18.33;90.94
22069;DHT22;13887;57.196;-2.100;2023-09-07T14:39:11;18.34;90.78
22069;DHT22;13887;57.196;-2.100;2023-09-07T14:41:39;18.36;90.90
22069;DHT22;13887;57.196;-2.100;2023-09-07T14:44:07;18.36;90.82
22069;DHT22;13887;57.196;-2.100;2023-09-07T14:46:34;18.37;91.04
22069;DHT22;13887;57.196;-2.100;2023-09-07T14:49:01;18.39;91.05
22069;DHT22;13887;57.196;-2.100;2023-09-07T14:51:28;18.40;91.40
22069;DHT22;13887;57.196;-2.100;2023-09-07T14:53:56;18.42;91.01
22069;DHT22;13887;57.196;-2.100;2023-09-07T14:56:24;18.44;91.62
22069;DHT22;13887;57.196;-2.100;2023-09-07T14:58:51;18.46;91.50
22069;DHT22;13887;57.196;-2.100;2023-09-07T15:01:19;18.47;92.00
22069;DHT22;13887;57.196;-2.100;2023-09-07T15:03:46;18.47;91.77
22069;DHT22;13887;57.196;-2.100;2023-09-07T15:06:13;18.47;91.86
22069;DHT22;13887;57.196;-2.100;2023-09-07T15:08:42;18.52;92.21
22069;DHT22;13887;57.196;-2.100;2023-09-07T15:11:10;18.52;92.10
22069;DHT22;13887;57.196;-2.100;2023-09-07T15:13:39;18.52;91.91
22069;DHT22;13887;57.196;-2.100;2023-09-07T15:16:06;18.53;92.19
22069;DHT22;13887;57.196;-2.100;2023-09-07T15:18:35;18.55;91.93
22069;DHT22;13887;57.196;-2.100;2023-09-07T15:21:03;18.55;91.68
22069;DHT22;13887;57.196;-2.100;2023-09-07T15:23:30;18.56;91.91
22069;DHT22;13887;57.196;-2.100;2023-09-07T15:25:58;18.57;92.12